sensor_id;sensor_type;location;lat;lon;timestamp;P1;durP1;ratioP1;P2;durP2;ratioP2
10450;SDS011;5273;51.290;6.918;2022-09-09T00:01:11;2.38;;;0.82;;
10450;SDS011;5273;51.290;6.918;2022-09-09T00:03:49;1.13;;;0.90;;
10450;SDS011;5273;51.290;6.918;2022-09-09T00:06:24;3.08;;;0.80;;
10450;SDS011;5273;51.290;6.918;2022-09-09T00:08:58;0.85;;;0.70;;
10450;SDS011;5273;51.290;6.918;2022-09-09T00:11:32;1.67;;;0.88;;
10450;SDS011;5273;51.290;6.918;2022-09-09T00:14:08;1.23;;;0.70;;
10450;SDS011;5273;51.290;6.918;2022-09-09T00:16:40;1.75;;;1.25;;
10450;SDS011;5273;51.290;6.918;2022-09-09T00:19:12;1.98;;;0.73;;
10450;SDS011;5273;51.290;6.918;2022-09-09T00:21:48;1.75;;;0.95;;
10450;SDS011;5273;51.290;6.918;2022-09-09T00:24:24;3.80;;;1.38;;
10450;SDS011;5273;51.290;6.918;2022-09-09T00:26:56;1.30;;;0.93;;
10450;SDS011;5273;51.290;6.918;2022-09-09T00:29:28;3.70;;;1.50;;
10450;SDS011;5273;51.290;6.918;2022-09-09T00:32:05;2.10;;;1.30;;
10450;SDS011;5273;51.290;6.918;2022-09-09T00:34:39;1.60;;;1.50;;
10450;SDS011;5273;51.290;6.918;2022-09-09T00:37:15;3.80;;;1.38;;
10450;SDS011;5273;51.290;6.918;2022-09-09T00:39:42;5.55;;;1.40;;
10450;SDS011;5273;51.290;6.918;2022-09-09T00:42:13;1.95;;;1.40;;
10450;SDS011;5273;51.290;6.918;2022-09-09T00:44:53;1.60;;;1.50;;
10450;SDS011;5273;51.290;6.918;2022-09-09T00:47:28;3.78;;;1.60;;
10450;SDS011;5273;51.290;6.918;2022-09-09T00:50:09;2.78;;;1.60;;
10450;SDS011;5273;51.290;6.918;2022-09-09T00:52:58;5.00;;;1.85;;
10450;SDS011;5273;51.290;6.918;2022-09-09T00:55:37;2.67;;;1.85;;
10450;SDS011;5273;51.290;6.918;2022-09-09T00:58:11;3.30;;;1.50;;
10450;SDS011;5273;51.290;6.918;2022-09-09T01:00:40;4.18;;;1.63;;
10450;SDS011;5273;51.290;6.918;2022-09-09T01:03:17;2.05;;;1.33;;
10450;SDS011;5273;51.290;6.918;2022-09-09T01:05:50;3.15;;;1.30;;
10450;SDS011;5273;51.290;6.918;2022-09-09T01:08:33;2.35;;;2.10;;
10450;SDS011;5273;51.290;6.918;2022-09-09T01:11:21;5.10;;;1.60;;
10450;SDS011;5273;51.290;6.918;2022-09-09T01:13:52;2.65;;;1.50;;
10450;SDS011;5273;51.290;6.918;2022-09-09T01:16:24;3.20;;;1.55;;
10450;SDS011;5273;51.290;6.918;2022-09-09T01:18:53;3.15;;;1.73;;
10450;SDS011;5273;51.290;6.918;2022-09-09T01:21:22;2.17;;;1.80;;
10450;SDS011;5273;51.290;6.918;2022-09-09T01:24:14;2.22;;;1.73;;
10450;SDS011;5273;51.290;6.918;2022-09-09T01:26:49;3.20;;;1.60;;
10450;SDS011;5273;51.290;6.918;2022-09-09T01:29:19;4.47;;;1.80;;
10450;SDS011;5273;51.290;6.918;2022-09-09T01:31:54;4.93;;;1.77;;
10450;SDS011;5273;51.290;6.918;2022-09-09T01:34:23;2.75;;;1.65;;
10450;SDS011;5273;51.290;6.918;2022-09-09T01:36:53;3.58;;;1.80;;
10450;SDS011;5273;51.290;6.918;2022-09-09T01:39:24;2.05;;;1.63;;
10450;SDS011;5273;51.290;6.918;2022-09-09T01:41:52;3.30;;;1.67;;
10450;SDS011;5273;51.290;6.918;2022-09-09T01:44:19;5.00;;;1.67;;
10450;SDS011;5273;51.290;6.918;2022-09-09T01:46:46;2.75;;;1.30;;
10450;SDS011;5273;51.290;6.918;2022-09-09T01:49:13;3.90;;;1.42;;
10450;SDS011;5273;51.290;6.918;2022-09-09T01:51:40;2.47;;;1.80;;
10450;SDS011;5273;51.290;6.918;2022-09-09T01:54:08;1.67;;;1.00;;
10450;SDS011;5273;51.290;6.918;2022-09-09T01:56:37;7.13;;;1.70;;
10450;SDS011;5273;51.290;6.918;2022-09-09T01:59:27;2.83;;;1.45;;
10450;SDS011;5273;51.290;6.918;2022-09-09T02:02:08;5.03;;;1.70;;
10450;SDS011;5273;51.290;6.918;2022-09-09T02:04:39;2.78;;;1.33;;
10450;SDS011;5273;51.290;6.918;2022-09-09T02:07:11;3.80;;;1.90;;
10450;SDS011;5273;51.290;6.918;2022-09-09T02:09:49;6.28;;;2.15;;
10450;SDS011;5273;51.290;6.918;2022-09-09T02:12:20;3.72;;;1.52;;
10450;SDS011;5273;51.290;6.918;2022-09-09T02:14:52;4.70;;;1.48;;
10450;SDS011;5273;51.290;6.918;2022-09-09T02:17:24;3.15;;;1.70;;
10450;SDS011;5273;51.290;6.918;2022-09-09T02:19:56;4.68;;;1.70;;
10450;SDS011;5273;51.290;6.918;2022-09-09T02:22:28;5.18;;;2.03;;
10450;SDS011;5273;51.290;6.918;2022-09-09T02:24:59;6.88;;;2.25;;
10450;SDS011;5273;51.290;6.918;2022-09-09T02:27:26;3.92;;;2.30;;
10450;SDS011;5273;51.290;6.918;2022-09-09T02:29:55;3.47;;;2.17;;
10450;SDS011;5273;51.290;6.918;2022-09-09T02:32:24;6.53;;;2.72;;
10450;SDS011;5273;51.290;6.918;2022-09-09T02:34:52;3.10;;;2.25;;
10450;SDS011;5273;51.290;6.918;2022-09-09T02:37:23;4.35;;;2.35;;
10450;SDS011;5273;51.290;6.918;2022-09-09T02:39:53;7.90;;;2.33;;
10450;SDS011;5273;51.290;6.918;2022-09-09T02:42:20;5.32;;;2.47;;
10450;SDS011;5273;51.290;6.918;2022-09-09T02:44:47;5.75;;;2.13;;
10450;SDS011;5273;51.290;6.918;2022-09-09T02:47:19;5.10;;;2.08;;
10450;SDS011;5273;51.290;6.918;2022-09-09T02:49:56;6.47;;;2.22;;
10450;SDS011;5273;51.290;6.918;2022-09-09T02:52:30;6.50;;;1.95;;
10450;SDS011;5273;51.290;6.918;2022-09-09T02:55:04;3.40;;;2.13;;
10450;SDS011;5273;51.290;6.918;2022-09-09T02:57:35;3.33;;;1.80;;
10450;SDS011;5273;51.290;6.918;2022-09-09T03:00:03;5.28;;;1.70;;
10450;SDS011;5273;51.290;6.918;2022-09-09T03:02:32;3.55;;;1.80;;
10450;SDS011;5273;51.290;6.918;2022-09-09T03:04:59;4.22;;;2.47;;
10450;SDS011;5273;51.290;6.918;2022-09-09T03:07:26;4.60;;;1.95;;
10450;SDS011;5273;51.290;6.918;2022-09-09T03:09:53;3.63;;;1.80;;
10450;SDS011;5273;51.290;6.918;2022-09-09T03:12:20;2.97;;;1.92;;
10450;SDS011;5273;51.290;6.918;2022-09-09T03:14:46;5.88;;;1.90;;
10450;SDS011;5273;51.290;6.918;2022-09-09T03:17:13;2.85;;;1.63;;
10450;SDS011;5273;51.290;6.918;2022-09-09T03:19:41;3.30;;;1.60;;
10450;SDS011;5273;51.290;6.918;2022-09-09T03:22:09;2.08;;;1.58;;
10450;SDS011;5273;51.290;6.918;2022-09-09T03:24:36;2.72;;;1.40;;
10450;SDS011;5273;51.290;6.918;2022-09-09T03:27:03;4.03;;;1.60;;
10450;SDS011;5273;51.290;6.918;2022-09-09T03:29:30;5.75;;;1.88;;
10450;SDS011;5273;51.290;6.918;2022-09-09T03:31:56;4.03;;;1.67;;
10450;SDS011;5273;51.290;6.918;2022-09-09T03:34:23;4.10;;;1.45;;
10450;SDS011;5273;51.290;6.918;2022-09-09T03:36:51;5.07;;;2.00;;
10450;SDS011;5273;51.290;6.918;2022-09-09T03:39:18;2.58;;;1.42;;
10450;SDS011;5273;51.290;6.918;2022-09-09T03:41:45;3.88;;;1.73;;
10450;SDS011;5273;51.290;6.918;2022-09-09T03:44:13;2.58;;;1.13;;
10450;SDS011;5273;51.290;6.918;2022-09-09T03:46:40;2.85;;;1.35;;
10450;SDS011;5273;51.290;6.918;2022-09-09T03:49:06;5.78;;;1.83;;
10450;SDS011;5273;51.290;6.918;2022-09-09T03:51:35;2.75;;;1.90;;
10450;SDS011;5273;51.290;6.918;2022-09-09T03:54:04;5.25;;;1.42;;
10450;SDS011;5273;51.290;6.918;2022-09-09T03:56:33;5.35;;;1.63;;
10450;SDS011;5273;51.290;6.918;2022-09-09T03:59:00;3.10;;;1.40;;
10450;SDS011;5273;51.290;6.918;2022-09-09T04:01:27;4.22;;;1.40;;
10450;SDS011;5273;51.290;6.918;2022-09-09T04:03:54;5.15;;;2.15;;
10450;SDS011;5273;51.290;6.918;2022-09-09T04:06:23;4.25;;;1.92;;
10450;SDS011;5273;51.290;6.918;2022-09-09T04:08:50;4.20;;;1.83;;
10450;SDS011;5273;51.290;6.918;2022-09-09T04:11:19;5.70;;;1.88;;
10450;SDS011;5273;51.290;6.918;2022-09-09T04:13:46;5.88;;;1.70;;
10450;SDS011;5273;51.290;6.918;2022-09-09T04:16:13;4.43;;;1.70;;
10450;SDS011;5273;51.290;6.918;2022-09-09T04:18:40;5.10;;;1.85;;
10450;SDS011;5273;51.290;6.918;2022-09-09T04:21:08;5.90;;;2.00;;
10450;SDS011;5273;51.290;6.918;2022-09-09T04:23:36;4.07;;;2.22;;
10450;SDS011;5273;51.290;6.918;2022-09-09T04:26:03;6.93;;;2.05;;
10450;SDS011;5273;51.290;6.918;2022-09-09T04:28:32;4.25;;;2.00;;
10450;SDS011;5273;51.290;6.918;2022-09-09T04:31:03;2.65;;;2.17;;
10450;SDS011;5273;51.290;6.918;2022-09-09T04:33:31;5.75;;;2.25;;
10450;SDS011;5273;51.290;6.918;2022-09-09T04:35:58;5.32;;;1.88;;
10450;SDS011;5273;51.290;6.918;2022-09-09T04:38:25;4.72;;;2.13;;
10450;SDS011;5273;51.290;6.918;2022-09-09T04:40:52;8.15;;;2.60;;
10450;SDS011;5273;51.290;6.918;2022-09-09T04:43:19;4.82;;;2.03;;
10450;SDS011;5273;51.290;6.918;2022-09-09T04:45:49;8.15;;;2.45;;
10450;SDS011;5273;51.290;6.918;2022-09-09T04:48:17;3.30;;;1.80;;
10450;SDS011;5273;51.290;6.918;2022-09-09T04:50:44;5.10;;;2.22;;
10450;SDS011;5273;51.290;6.918;2022-09-09T04:53:19;6.00;;;2.08;;
10450;SDS011;5273;51.290;6.918;2022-09-09T04:55:47;7.47;;;2.30;;
10450;SDS011;5273;51.290;6.918;2022-09-09T04:58:14;5.00;;;2.05;;
10450;SDS011;5273;51.290;6.918;2022-09-09T05:00:41;3.70;;;1.70;;
10450;SDS011;5273;51.290;6.918;2022-09-09T05:03:09;8.55;;;2.20;;
10450;SDS011;5273;51.290;6.918;2022-09-09T05:05:37;4.20;;;2.15;;
10450;SDS011;5273;51.290;6.918;2022-09-09T05:08:05;7.18;;;2.08;;
10450;SDS011;5273;51.290;6.918;2022-09-09T05:10:34;7.47;;;2.55;;
10450;SDS011;5273;51.290;6.918;2022-09-09T05:13:03;5.93;;;2.40;;
10450;SDS011;5273;51.290;6.918;2022-09-09T05:15:31;5.93;;;2.40;;
10450;SDS011;5273;51.290;6.918;2022-09-09T05:17:58;6.35;;;2.15;;
10450;SDS011;5273;51.290;6.918;2022-09-09T05:20:27;5.65;;;2.50;;
10450;SDS011;5273;51.290;6.918;2022-09-09T05:22:54;3.70;;;2.00;;
10450;SDS011;5273;51.290;6.918;2022-09-09T05:25:22;5.45;;;2.28;;
10450;SDS011;5273;51.290;6.918;2022-09-09T05:27:50;4.75;;;2.00;;
10450;SDS011;5273;51.290;6.918;2022-09-09T05:30:17;5.40;;;1.70;;
10450;SDS011;5273;51.290;6.918;2022-09-09T05:32:44;4.28;;;2.25;;
10450;SDS011;5273;51.290;6.918;2022-09-09T05:35:13;7.18;;;2.20;;
10450;SDS011;5273;51.290;6.918;2022-09-09T05:37:42;6.65;;;2.08;;
10450;SDS011;5273;51.290;6.918;2022-09-09T05:40:10;3.97;;;2.20;;
10450;SDS011;5273;51.290;6.918;2022-09-09T05:42:37;3.58;;;1.90;;
10450;SDS011;5273;51.290;6.918;2022-09-09T05:45:05;7.05;;;2.10;;
10450;SDS011;5273;51.290;6.918;2022-09-09T05:47:33;4.35;;;2.03;;
10450;SDS011;5273;51.290;6.918;2022-09-09T05:50:02;5.10;;;1.98;;
10450;SDS011;5273;51.290;6.918;2022-09-09T05:52:29;5.72;;;2.10;;
10450;SDS011;5273;51.290;6.918;2022-09-09T05:54:58;7.53;;;2.47;;
10450;SDS011;5273;51.290;6.918;2022-09-09T05:57:25;8.00;;;2.08;;
10450;SDS011;5273;51.290;6.918;2022-09-09T05:59:51;7.10;;;2.10;;
10450;SDS011;5273;51.290;6.918;2022-09-09T06:02:18;4.22;;;1.83;;
10450;SDS011;5273;51.290;6.918;2022-09-09T06:04:45;4.28;;;2.10;;
10450;SDS011;5273;51.290;6.918;2022-09-09T06:07:12;4.32;;;1.92;;
10450;SDS011;5273;51.290;6.918;2022-09-09T06:09:39;5.45;;;2.15;;
10450;SDS011;5273;51.290;6.918;2022-09-09T06:12:08;6.35;;;1.98;;
10450;SDS011;5273;51.290;6.918;2022-09-09T06:14:35;8.25;;;2.10;;
10450;SDS011;5273;51.290;6.918;2022-09-09T06:17:01;4.95;;;2.10;;
10450;SDS011;5273;51.290;6.918;2022-09-09T06:19:28;6.05;;;2.00;;
10450;SDS011;5273;51.290;6.918;2022-09-09T06:21:55;8.50;;;2.38;;
10450;SDS011;5273;51.290;6.918;2022-09-09T06:24:22;4.45;;;2.00;;
10450;SDS011;5273;51.290;6.918;2022-09-09T06:26:49;5.18;;;1.90;;
10450;SDS011;5273;51.290;6.918;2022-09-09T06:29:17;5.63;;;2.03;;
10450;SDS011;5273;51.290;6.918;2022-09-09T06:31:44;6.38;;;1.90;;
10450;SDS011;5273;51.290;6.918;2022-09-09T06:34:11;4.53;;;2.00;;
10450;SDS011;5273;51.290;6.918;2022-09-09T06:36:38;3.40;;;2.08;;
10450;SDS011;5273;51.290;6.918;2022-09-09T06:39:05;4.80;;;2.00;;
10450;SDS011;5273;51.290;6.918;2022-09-09T06:41:33;5.63;;;1.75;;
10450;SDS011;5273;51.290;6.918;2022-09-09T06:44:00;4.68;;;1.80;;
10450;SDS011;5273;51.290;6.918;2022-09-09T06:46:30;3.08;;;1.77;;
10450;SDS011;5273;51.290;6.918;2022-09-09T06:48:58;4.25;;;2.05;;
10450;SDS011;5273;51.290;6.918;2022-09-09T06:51:25;4.22;;;1.52;;
10450;SDS011;5273;51.290;6.918;2022-09-09T06:53:54;9.98;;;2.45;;
10450;SDS011;5273;51.290;6.918;2022-09-09T06:56:23;6.40;;;2.30;;
10450;SDS011;5273;51.290;6.918;2022-09-09T06:58:53;3.58;;;1.95;;
10450;SDS011;5273;51.290;6.918;2022-09-09T07:01:21;4.70;;;1.80;;
10450;SDS011;5273;51.290;6.918;2022-09-09T07:03:51;4.72;;;2.00;;
10450;SDS011;5273;51.290;6.918;2022-09-09T07:06:20;4.57;;;1.65;;
10450;SDS011;5273;51.290;6.918;2022-09-09T07:08:49;3.70;;;1.65;;
10450;SDS011;5273;51.290;6.918;2022-09-09T07:11:16;7.80;;;1.90;;
10450;SDS011;5273;51.290;6.918;2022-09-09T07:13:45;3.85;;;1.83;;
10450;SDS011;5273;51.290;6.918;2022-09-09T07:16:12;4.22;;;1.60;;
10450;SDS011;5273;51.290;6.918;2022-09-09T07:18:41;3.95;;;1.92;;
10450;SDS011;5273;51.290;6.918;2022-09-09T07:21:10;2.78;;;1.80;;
10450;SDS011;5273;51.290;6.918;2022-09-09T07:23:38;4.70;;;1.88;;
10450;SDS011;5273;51.290;6.918;2022-09-09T07:26:07;8.38;;;2.47;;
10450;SDS011;5273;51.290;6.918;2022-09-09T07:28:35;5.57;;;1.60;;
10450;SDS011;5273;51.290;6.918;2022-09-09T07:31:03;8.25;;;2.30;;
10450;SDS011;5273;51.290;6.918;2022-09-09T07:33:31;2.40;;;1.65;;
10450;SDS011;5273;51.290;6.918;2022-09-09T07:36:03;4.30;;;1.88;;
10450;SDS011;5273;51.290;6.918;2022-09-09T07:38:36;4.05;;;2.03;;
10450;SDS011;5273;51.290;6.918;2022-09-09T07:41:05;4.95;;;1.83;;
10450;SDS011;5273;51.290;6.918;2022-09-09T07:43:34;6.63;;;2.17;;
10450;SDS011;5273;51.290;6.918;2022-09-09T07:46:01;6.25;;;1.90;;
10450;SDS011;5273;51.290;6.918;2022-09-09T07:48:28;4.38;;;1.83;;
10450;SDS011;5273;51.290;6.918;2022-09-09T07:51:03;4.22;;;1.90;;
10450;SDS011;5273;51.290;6.918;2022-09-09T07:53:31;5.57;;;1.50;;
10450;SDS011;5273;51.290;6.918;2022-09-09T07:56:05;6.40;;;1.83;;
10450;SDS011;5273;51.290;6.918;2022-09-09T07:58:34;5.53;;;1.58;;
10450;SDS011;5273;51.290;6.918;2022-09-09T08:01:05;4.90;;;1.90;;
10450;SDS011;5273;51.290;6.918;2022-09-09T08:03:34;4.22;;;1.98;;
10450;SDS011;5273;51.290;6.918;2022-09-09T08:06:01;3.72;;;1.40;;
10450;SDS011;5273;51.290;6.918;2022-09-09T08:08:29;7.28;;;1.60;;
10450;SDS011;5273;51.290;6.918;2022-09-09T08:11:02;6.40;;;1.27;;
10450;SDS011;5273;51.290;6.918;2022-09-09T08:13:32;6.20;;;1.60;;
10450;SDS011;5273;51.290;6.918;2022-09-09T08:16:04;3.13;;;1.40;;
10450;SDS011;5273;51.290;6.918;2022-09-09T08:18:35;2.60;;;1.40;;
10450;SDS011;5273;51.290;6.918;2022-09-09T08:21:06;5.88;;;1.30;;
10450;SDS011;5273;51.290;6.918;2022-09-09T08:23:36;3.72;;;1.60;;
10450;SDS011;5273;51.290;6.918;2022-09-09T08:26:06;4.72;;;1.50;;
10450;SDS011;5273;51.290;6.918;2022-09-09T08:28:35;5.15;;;1.45;;
10450;SDS011;5273;51.290;6.918;2022-09-09T08:31:06;7.90;;;2.28;;
10450;SDS011;5273;51.290;6.918;2022-09-09T08:33:34;6.03;;;1.60;;
10450;SDS011;5273;51.290;6.918;2022-09-09T08:36:03;3.65;;;1.50;;
10450;SDS011;5273;51.290;6.918;2022-09-09T08:38:30;5.57;;;1.60;;
10450;SDS011;5273;51.290;6.918;2022-09-09T08:40:59;5.78;;;1.52;;
10450;SDS011;5273;51.290;6.918;2022-09-09T08:43:35;4.57;;;1.60;;
10450;SDS011;5273;51.290;6.918;2022-09-09T08:46:03;4.97;;;1.50;;
10450;SDS011;5273;51.290;6.918;2022-09-09T08:48:41;3.45;;;1.42;;
10450;SDS011;5273;51.290;6.918;2022-09-09T08:51:17;3.85;;;1.50;;
10450;SDS011;5273;51.290;6.918;2022-09-09T08:53:46;6.85;;;1.50;;
10450;SDS011;5273;51.290;6.918;2022-09-09T08:56:16;4.28;;;1.20;;
10450;SDS011;5273;51.290;6.918;2022-09-09T08:58:47;4.55;;;1.50;;
10450;SDS011;5273;51.290;6.918;2022-09-09T09:01:18;4.38;;;1.90;;
10450;SDS011;5273;51.290;6.918;2022-09-09T09:03:54;2.92;;;1.60;;
10450;SDS011;5273;51.290;6.918;2022-09-09T09:06:26;4.90;;;1.52;;
10450;SDS011;5273;51.290;6.918;2022-09-09T09:09:07;4.40;;;2.08;;
10450;SDS011;5273;51.290;6.918;2022-09-09T09:11:39;4.72;;;1.77;;
10450;SDS011;5273;51.290;6.918;2022-09-09T09:14:10;5.15;;;2.28;;
10450;SDS011;5273;51.290;6.918;2022-09-09T09:16:48;3.28;;;1.40;;
10450;SDS011;5273;51.290;6.918;2022-09-09T09:19:19;5.68;;;1.92;;
10450;SDS011;5273;51.290;6.918;2022-09-09T09:21:48;2.75;;;1.27;;
10450;SDS011;5273;51.290;6.918;2022-09-09T09:24:20;4.15;;;1.58;;
10450;SDS011;5273;51.290;6.918;2022-09-09T09:26:53;3.17;;;1.40;;
10450;SDS011;5273;51.290;6.918;2022-09-09T09:29:23;4.35;;;1.40;;
10450;SDS011;5273;51.290;6.918;2022-09-09T09:31:52;4.85;;;1.50;;
10450;SDS011;5273;51.290;6.918;2022-09-09T09:34:20;6.85;;;2.10;;
10450;SDS011;5273;51.290;6.918;2022-09-09T09:36:52;4.78;;;1.60;;
10450;SDS011;5273;51.290;6.918;2022-09-09T09:39:24;4.82;;;1.88;;
10450;SDS011;5273;51.290;6.918;2022-09-09T09:41:52;4.05;;;1.77;;
10450;SDS011;5273;51.290;6.918;2022-09-09T09:44:24;4.72;;;1.70;;
10450;SDS011;5273;51.290;6.918;2022-09-09T09:46:52;3.47;;;1.58;;
10450;SDS011;5273;51.290;6.918;2022-09-09T09:49:31;5.57;;;1.40;;
10450;SDS011;5273;51.290;6.918;2022-09-09T09:51:59;3.42;;;1.27;;
10450;SDS011;5273;51.290;6.918;2022-09-09T09:54:27;1.65;;;1.00;;
10450;SDS011;5273;51.290;6.918;2022-09-09T09:56:56;2.38;;;1.25;;
10450;SDS011;5273;51.290;6.918;2022-09-09T09:59:35;2.05;;;1.23;;
10450;SDS011;5273;51.290;6.918;2022-09-09T10:02:14;2.90;;;1.25;;
10450;SDS011;5273;51.290;6.918;2022-09-09T10:04:43;3.13;;;1.25;;
10450;SDS011;5273;51.290;6.918;2022-09-09T10:07:11;4.25;;;1.25;;
10450;SDS011;5273;51.290;6.918;2022-09-09T10:09:39;3.00;;;1.25;;
10450;SDS011;5273;51.290;6.918;2022-09-09T10:12:09;4.50;;;1.30;;
10450;SDS011;5273;51.290;6.918;2022-09-09T10:14:49;6.32;;;1.60;;
10450;SDS011;5273;51.290;6.918;2022-09-09T10:17:25;3.97;;;1.50;;
10450;SDS011;5273;51.290;6.918;2022-09-09T10:20:13;3.08;;;1.40;;
10450;SDS011;5273;51.290;6.918;2022-09-09T10:22:47;1.60;;;1.10;;
10450;SDS011;5273;51.290;6.918;2022-09-09T10:25:20;3.25;;;1.23;;
10450;SDS011;5273;51.290;6.918;2022-09-09T10:28:16;2.03;;;0.90;;
10450;SDS011;5273;51.290;6.918;2022-09-09T10:30:58;2.95;;;1.15;;
10450;SDS011;5273;51.290;6.918;2022-09-09T10:33:37;2.92;;;1.20;;
10450;SDS011;5273;51.290;6.918;2022-09-09T10:36:12;2.10;;;0.95;;
10450;SDS011;5273;51.290;6.918;2022-09-09T10:38:44;2.25;;;1.05;;
10450;SDS011;5273;51.290;6.918;2022-09-09T10:41:15;2.65;;;1.13;;
10450;SDS011;5273;51.290;6.918;2022-09-09T10:43:48;1.17;;;0.88;;
10450;SDS011;5273;51.290;6.918;2022-09-09T10:46:42;5.68;;;1.15;;
10450;SDS011;5273;51.290;6.918;2022-09-09T10:49:37;1.20;;;0.88;;
10450;SDS011;5273;51.290;6.918;2022-09-09T10:52:20;1.48;;;0.90;;
10450;SDS011;5273;51.290;6.918;2022-09-09T10:54:55;3.45;;;1.40;;
10450;SDS011;5273;51.290;6.918;2022-09-09T10:57:27;1.27;;;0.93;;
10450;SDS011;5273;51.290;6.918;2022-09-09T10:59:58;1.92;;;0.90;;
10450;SDS011;5273;51.290;6.918;2022-09-09T11:02:32;3.38;;;1.25;;
10450;SDS011;5273;51.290;6.918;2022-09-09T11:05:02;4.82;;;1.10;;
10450;SDS011;5273;51.290;6.918;2022-09-09T11:07:33;3.00;;;1.15;;
10450;SDS011;5273;51.290;6.918;2022-09-09T11:10:06;3.08;;;1.23;;
10450;SDS011;5273;51.290;6.918;2022-09-09T11:12:43;1.98;;;0.98;;
10450;SDS011;5273;51.290;6.918;2022-09-09T11:15:16;4.10;;;0.93;;
10450;SDS011;5273;51.290;6.918;2022-09-09T11:17:50;0.88;;;0.75;;
10450;SDS011;5273;51.290;6.918;2022-09-09T11:20:21;2.03;;;1.08;;
10450;SDS011;5273;51.290;6.918;2022-09-09T11:22:50;4.03;;;1.00;;
10450;SDS011;5273;51.290;6.918;2022-09-09T11:25:21;3.75;;;1.13;;
10450;SDS011;5273;51.290;6.918;2022-09-09T11:27:56;2.55;;;1.10;;
10450;SDS011;5273;51.290;6.918;2022-09-09T11:30:53;2.88;;;1.17;;
10450;SDS011;5273;51.290;6.918;2022-09-09T11:36:41;1.77;;;1.02;;
10450;SDS011;5273;51.290;6.918;2022-09-09T11:42:15;1.80;;;1.02;;
10450;SDS011;5273;51.290;6.918;2022-09-09T11:44:45;3.10;;;0.90;;
10450;SDS011;5273;51.290;6.918;2022-09-09T11:47:22;3.70;;;0.80;;
10450;SDS011;5273;51.290;6.918;2022-09-09T11:50:06;3.05;;;1.10;;
10450;SDS011;5273;51.290;6.918;2022-09-09T11:52:36;2.95;;;0.95;;
10450;SDS011;5273;51.290;6.918;2022-09-09T11:55:08;3.85;;;1.20;;
10450;SDS011;5273;51.290;6.918;2022-09-09T11:57:37;2.05;;;1.00;;
10450;SDS011;5273;51.290;6.918;2022-09-09T12:03:00;3.17;;;1.02;;
10450;SDS011;5273;51.290;6.918;2022-09-09T12:05:36;1.70;;;1.02;;
10450;SDS011;5273;51.290;6.918;2022-09-09T12:08:05;1.77;;;1.08;;
10450;SDS011;5273;51.290;6.918;2022-09-09T12:10:36;1.40;;;0.98;;
10450;SDS011;5273;51.290;6.918;2022-09-09T12:13:15;2.95;;;1.30;;
10450;SDS011;5273;51.290;6.918;2022-09-09T12:15:47;1.33;;;1.00;;
10450;SDS011;5273;51.290;6.918;2022-09-09T12:18:16;2.20;;;0.88;;
10450;SDS011;5273;51.290;6.918;2022-09-09T12:20:52;2.92;;;1.05;;
10450;SDS011;5273;51.290;6.918;2022-09-09T12:23:29;4.80;;;1.33;;
10450;SDS011;5273;51.290;6.918;2022-09-09T12:26:14;4.28;;;1.10;;
10450;SDS011;5273;51.290;6.918;2022-09-09T12:28:54;2.50;;;1.50;;
10450;SDS011;5273;51.290;6.918;2022-09-09T12:31:32;3.45;;;1.52;;
10450;SDS011;5273;51.290;6.918;2022-09-09T12:34:08;4.43;;;1.40;;
10450;SDS011;5273;51.290;6.918;2022-09-09T12:36:38;2.88;;;1.30;;
10450;SDS011;5273;51.290;6.918;2022-09-09T12:39:10;5.78;;;1.27;;
10450;SDS011;5273;51.290;6.918;2022-09-09T12:41:50;3.80;;;1.55;;
10450;SDS011;5273;51.290;6.918;2022-09-09T12:44:22;2.90;;;1.30;;
10450;SDS011;5273;51.290;6.918;2022-09-09T12:46:49;2.97;;;1.50;;
10450;SDS011;5273;51.290;6.918;2022-09-09T12:49:24;1.90;;;1.40;;
10450;SDS011;5273;51.290;6.918;2022-09-09T12:51:55;2.92;;;1.10;;
10450;SDS011;5273;51.290;6.918;2022-09-09T12:54:23;3.88;;;1.13;;
10450;SDS011;5273;51.290;6.918;2022-09-09T12:56:50;3.28;;;1.38;;
10450;SDS011;5273;51.290;6.918;2022-09-09T12:59:21;4.03;;;1.50;;
10450;SDS011;5273;51.290;6.918;2022-09-09T13:01:54;4.75;;;1.50;;
10450;SDS011;5273;51.290;6.918;2022-09-09T13:04:22;2.78;;;1.23;;
10450;SDS011;5273;51.290;6.918;2022-09-09T13:06:48;5.18;;;1.50;;
10450;SDS011;5273;51.290;6.918;2022-09-09T13:09:18;4.65;;;1.30;;
10450;SDS011;5273;51.290;6.918;2022-09-09T13:11:46;5.30;;;1.50;;
10450;SDS011;5273;51.290;6.918;2022-09-09T13:14:16;3.33;;;1.15;;
10450;SDS011;5273;51.290;6.918;2022-09-09T13:16:54;7.70;;;2.17;;
10450;SDS011;5273;51.290;6.918;2022-09-09T13:19:23;6.03;;;2.25;;
10450;SDS011;5273;51.290;6.918;2022-09-09T13:21:52;4.05;;;1.75;;
10450;SDS011;5273;51.290;6.918;2022-09-09T13:24:29;2.95;;;1.65;;
10450;SDS011;5273;51.290;6.918;2022-09-09T13:26:58;3.97;;;1.70;;
10450;SDS011;5273;51.290;6.918;2022-09-09T13:29:26;2.95;;;1.50;;
10450;SDS011;5273;51.290;6.918;2022-09-09T13:31:54;3.47;;;1.42;;
10450;SDS011;5273;51.290;6.918;2022-09-09T13:34:32;2.97;;;1.55;;
10450;SDS011;5273;51.290;6.918;2022-09-09T13:37:00;2.70;;;1.23;;
10450;SDS011;5273;51.290;6.918;2022-09-09T13:39:32;1.77;;;1.27;;
10450;SDS011;5273;51.290;6.918;2022-09-09T13:42:00;4.22;;;1.13;;
10450;SDS011;5273;51.290;6.918;2022-09-09T13:44:30;4.93;;;1.35;;
10450;SDS011;5273;51.290;6.918;2022-09-09T13:47:01;2.78;;;1.50;;
10450;SDS011;5273;51.290;6.918;2022-09-09T13:49:29;2.83;;;1.58;;
10450;SDS011;5273;51.290;6.918;2022-09-09T13:52:05;3.63;;;1.20;;
10450;SDS011;5273;51.290;6.918;2022-09-09T13:54:37;4.05;;;1.52;;
10450;SDS011;5273;51.290;6.918;2022-09-09T13:57:04;1.80;;;1.30;;
10450;SDS011;5273;51.290;6.918;2022-09-09T13:59:32;3.38;;;1.33;;
10450;SDS011;5273;51.290;6.918;2022-09-09T14:01:59;4.85;;;1.33;;
10450;SDS011;5273;51.290;6.918;2022-09-09T14:04:26;4.10;;;1.25;;
10450;SDS011;5273;51.290;6.918;2022-09-09T14:06:53;2.15;;;1.48;;
10450;SDS011;5273;51.290;6.918;2022-09-09T14:09:21;3.47;;;1.42;;
10450;SDS011;5273;51.290;6.918;2022-09-09T14:11:49;6.30;;;1.65;;
10450;SDS011;5273;51.290;6.918;2022-09-09T14:14:16;3.63;;;1.60;;
10450;SDS011;5273;51.290;6.918;2022-09-09T14:16:43;2.35;;;1.60;;
10450;SDS011;5273;51.290;6.918;2022-09-09T14:19:10;2.40;;;1.42;;
10450;SDS011;5273;51.290;6.918;2022-09-09T14:21:37;2.70;;;1.58;;
10450;SDS011;5273;51.290;6.918;2022-09-09T14:24:04;1.40;;;1.17;;
10450;SDS011;5273;51.290;6.918;2022-09-09T14:26:31;2.47;;;1.30;;
10450;SDS011;5273;51.290;6.918;2022-09-09T14:28:59;1.92;;;0.93;;
10450;SDS011;5273;51.290;6.918;2022-09-09T14:31:26;1.23;;;1.13;;
10450;SDS011;5273;51.290;6.918;2022-09-09T14:33:53;2.47;;;1.00;;
10450;SDS011;5273;51.290;6.918;2022-09-09T14:36:20;2.72;;;1.17;;
10450;SDS011;5273;51.290;6.918;2022-09-09T14:38:47;2.65;;;0.90;;
10450;SDS011;5273;51.290;6.918;2022-09-09T14:41:15;1.67;;;0.82;;
10450;SDS011;5273;51.290;6.918;2022-09-09T14:43:43;3.08;;;1.15;;
10450;SDS011;5273;51.290;6.918;2022-09-09T14:46:12;2.47;;;1.10;;
10450;SDS011;5273;51.290;6.918;2022-09-09T14:48:41;2.78;;;0.80;;
10450;SDS011;5273;51.290;6.918;2022-09-09T14:51:10;0.57;;;0.17;;
10450;SDS011;5273;51.290;6.918;2022-09-09T14:53:38;0.52;;;0.17;;
10450;SDS011;5273;51.290;6.918;2022-09-09T14:56:06;1.95;;;0.40;;
10450;SDS011;5273;51.290;6.918;2022-09-09T14:58:34;0.13;;;0.10;;
10450;SDS011;5273;51.290;6.918;2022-09-09T15:01:02;1.48;;;0.70;;
10450;SDS011;5273;51.290;6.918;2022-09-09T15:03:31;3.05;;;0.95;;
10450;SDS011;5273;51.290;6.918;2022-09-09T15:06:04;2.58;;;0.65;;
10450;SDS011;5273;51.290;6.918;2022-09-09T15:08:31;1.77;;;0.82;;
10450;SDS011;5273;51.290;6.918;2022-09-09T15:10:58;0.95;;;0.68;;
10450;SDS011;5273;51.290;6.918;2022-09-09T15:13:26;0.80;;;0.70;;
10450;SDS011;5273;51.290;6.918;2022-09-09T15:15:53;2.03;;;0.73;;
10450;SDS011;5273;51.290;6.918;2022-09-09T15:18:20;1.27;;;0.57;;
10450;SDS011;5273;51.290;6.918;2022-09-09T15:20:48;0.75;;;0.60;;
10450;SDS011;5273;51.290;6.918;2022-09-09T15:23:15;0.77;;;0.63;;
10450;SDS011;5273;51.290;6.918;2022-09-09T15:25:52;1.40;;;0.70;;
10450;SDS011;5273;51.290;6.918;2022-09-09T15:28:20;1.88;;;0.55;;
10450;SDS011;5273;51.290;6.918;2022-09-09T15:30:47;0.50;;;0.50;;